Time;durP1;ratioP1;P1;durP2;ratioP2;P2;SDS_P1;SDS_P2;PMS_P1;PMS_P2;Temp;Humidity;BMP_temperature;BMP_pressure;BME280_temperature;BME280_humidity;BME280_pressure;Samples;Min_cycle;Max_cycle;Signal;HPM_P1;HPM_P2
2023/10/25 00:01:37;;;;;;;33.30;11.48;;;;;;;;;;6274412;22;20099;-85
2023/10/25 00:04:05;;;;;;;33.10;12.18;;;;;;;;;;6221784;22;20026;-84
2023/10/25 00:06:32;;;;;;;22.70;11.50;;;;;;;;;;6247099;22;20010;-85
2023/10/25 00:08:59;;;;;;;29.15;11.90;;;;;;;;;;6247456;22;20020;-85
2023/10/25 00:11:26;;;;;;;27.50;10.95;;;;;;;;;;6246378;22;20495;-85
2023/10/25 00:13:52;;;;;;;29.83;12.52;;;;;;;;;;6247381;22;20324;-85
2023/10/25 00:16:19;;;;;;;33.03;11.57;;;;;;;;;;6246067;22;20015;-84
2023/10/25 00:18:46;;;;;;;32.92;11.63;;;;;;;;;;6222823;22;20302;-85
2023/10/25 00:21:13;;;;;;;29.45;10.13;;;;;;;;;;6246928;22;20022;-85
2023/10/25 00:23:40;;;;;;;30.58;9.70;;;;;;;;;;6246769;22;20091;-85
2023/10/25 00:26:07;;;;;;;36.17;11.00;;;;;;;;;;6246390;22;20098;-84
2023/10/25 00:28:33;;;;;;;29.65;10.02;;;;;;;;;;6221632;22;20016;-85
2023/10/25 00:31:00;;;;;;;30.63;9.90;;;;;;;;;;6274368;22;20380;-85
2023/10/25 00:33:28;;;;;;;24.00;9.07;;;;;;;;;;6246206;22;20069;-85
2023/10/25 00:35:54;;;;;;;26.00;10.18;;;;;;;;;;6274087;22;20090;-85
2023/10/25 00:38:22;;;;;;;30.70;10.98;;;;;;;;;;6271967;22;20024;-85
2023/10/25 00:40:48;;;;;;;36.20;11.85;;;;;;;;;;6247056;22;20095;-85
2023/10/25 00:43:19;;;;;;;32.88;10.98;;;;;;;;;;6246546;22;20340;-85
2023/10/25 00:46:01;;;;;;;23.25;10.13;;;;;;;;;;6246732;22;20099;-85
2023/10/25 00:48:29;;;;;;;24.42;10.18;;;;;;;;;;6273263;22;20026;-85
2023/10/25 00:50:56;;;;;;;21.98;9.05;;;;;;;;;;6246778;22;20044;-85
2023/10/25 00:53:24;;;;;;;22.00;9.13;;;;;;;;;;6246406;22;20095;-85
2023/10/25 00:55:53;;;;;;;27.93;9.27;;;;;;;;;;6274312;22;20376;-85
2023/10/25 00:58:22;;;;;;;17.65;8.38;;;;;;;;;;6273473;22;20095;-85
2023/10/25 01:00:50;;;;;;;;;;;;;;;;;;6222241;22;20393;-84
2023/10/25 01:03:17;;;;;;;23.38;10.38;;;;;;;;;;6245741;22;19915;-84
2023/10/25 01:05:44;;;;;;;26.48;8.52;;;;;;;;;;6246663;22;20018;-85
2023/10/25 01:08:11;;;;;;;21.55;9.02;;;;;;;;;;6273718;22;20039;-85
2023/10/25 01:10:38;;;;;;;26.52;9.90;;;;;;;;;;6221390;22;20028;-85
2023/10/25 01:13:05;;;;;;;40.25;9.68;;;;;;;;;;6273718;22;20102;-84
2023/10/25 01:15:32;;;;;;;27.33;9.32;;;;;;;;;;6221370;22;20129;-85
2023/10/25 01:17:58;;;;;;;20.48;8.80;;;;;;;;;;6274406;22;20031;-85
2023/10/25 01:20:25;;;;;;;27.05;9.95;;;;;;;;;;6245782;22;20085;-84
2023/10/25 01:22:52;;;;;;;29.55;9.98;;;;;;;;;;6273818;22;20520;-84
2023/10/25 01:25:19;;;;;;;25.35;9.90;;;;;;;;;;6271780;22;20022;-85
2023/10/25 01:27:45;;;;;;;34.47;10.23;;;;;;;;;;6273799;22;20028;-85
2023/10/25 01:30:13;;;;;;;27.50;9.38;;;;;;;;;;6220848;22;20015;-85
2023/10/25 01:32:39;;;;;;;25.52;9.18;;;;;;;;;;6246684;22;20020;-84
2023/10/25 01:35:07;;;;;;;21.02;8.95;;;;;;;;;;6246811;22;20023;-84
2023/10/25 01:37:34;;;;;;;23.50;8.73;;;;;;;;;;6273665;22;20170;-84
2023/10/25 01:40:02;;;;;;;21.27;9.20;;;;;;;;;;6274384;22;20011;-83
2023/10/25 01:42:29;;;;;;;15.57;7.43;;;;;;;;;;6246231;22;20024;-84
2023/10/25 01:44:56;;;;;;;14.60;7.13;;;;;;;;;;6273722;22;20011;-85
2023/10/25 01:47:23;;;;;;;21.48;6.97;;;;;;;;;;6246172;22;20073;-84
2023/10/25 01:49:50;;;;;;;13.25;7.13;;;;;;;;;;6246744;22;20293;-84
2023/10/25 01:52:17;;;;;;;14.38;8.35;;;;;;;;;;6272967;22;20349;-83
2023/10/25 01:54:46;;;;;;;14.90;7.63;;;;;;;;;;6273709;22;20018;-85
2023/10/25 01:57:12;;;;;;;14.55;7.57;;;;;;;;;;6273078;22;20020;-85
2023/10/25 01:59:40;;;;;;;12.73;7.35;;;;;;;;;;6273584;22;20134;-85
2023/10/25 02:02:07;;;;;;;12.10;6.77;;;;;;;;;;6221122;22;20034;-85
2023/10/25 02:04:34;;;;;;;17.67;7.80;;;;;;;;;;6246488;22;20021;-85
2023/10/25 02:07:02;;;;;;;16.52;6.60;;;;;;;;;;6273575;22;20065;-84
2023/10/25 02:09:29;;;;;;;15.05;7.50;;;;;;;;;;6246450;22;20361;-84
2023/10/25 02:11:57;;;;;;;14.45;6.63;;;;;;;;;;6247171;22;20362;-85
2023/10/25 02:14:23;;;;;;;18.83;6.15;;;;;;;;;;6246355;22;20022;-85
2023/10/25 02:16:50;;;;;;;30.08;7.03;;;;;;;;;;6274024;22;20081;-84
2023/10/25 02:19:18;;;;;;;31.60;5.88;;;;;;;;;;6275021;22;20370;-84
2023/10/25 02:21:45;;;;;;;31.90;5.93;;;;;;;;;;6223253;22;20035;-85
2023/10/25 02:24:14;;;;;;;26.02;4.60;;;;;;;;;;6222964;22;20019;-84
2023/10/25 02:26:41;;;;;;;29.08;5.70;;;;;;;;;;6275528;22;20012;-84
2023/10/25 02:29:08;;;;;;;31.73;5.50;;;;;;;;;;6247987;22;20012;-84
2023/10/25 02:31:36;;;;;;;33.47;5.95;;;;;;;;;;6222867;22;20032;-86
2023/10/25 02:34:04;;;;;;;34.30;5.83;;;;;;;;;;6248733;22;20004;-85
2023/10/25 02:36:31;;;;;;;35.05;5.60;;;;;;;;;;6222610;22;20122;-85
2023/10/25 02:38:58;;;;;;;36.22;5.10;;;;;;;;;;6248308;22;20015;-85
2023/10/25 02:41:25;;;;;;;32.95;5.40;;;;;;;;;;6274426;22;20099;-85
2023/10/25 02:43:53;;;;;;;38.38;4.80;;;;;;;;;;6275311;22;20094;-85
2023/10/25 02:46:20;;;;;;;41.03;4.72;;;;;;;;;;6222266;22;20015;-85
2023/10/25 02:48:47;;;;;;;46.33;5.65;;;;;;;;;;6247705;22;20012;-85
2023/10/25 02:51:14;;;;;;;46.65;4.82;;;;;;;;;;6274728;22;20020;-85
2023/10/25 02:53:41;;;;;;;40.38;4.78;;;;;;;;;;6247558;22;20305;-84
2023/10/25 02:56:08;;;;;;;46.25;5.38;;;;;;;;;;6275263;22;20095;-86
2023/10/25 02:58:35;;;;;;;46.72;6.13;;;;;;;;;;6275063;22;20039;-86
2023/10/25 03:01:03;;;;;;;39.88;5.18;;;;;;;;;;6275256;22;20112;-84
2023/10/25 03:03:31;;;;;;;48.42;5.95;;;;;;;;;;6247338;22;20019;-85
2023/10/25 03:05:58;;;;;;;34.28;4.07;;;;;;;;;;6223149;22;20020;-85
2023/10/25 03:08:26;;;;;;;36.80;4.38;;;;;;;;;;6272610;22;20020;-85
2023/10/25 03:10:55;;;;;;;33.75;4.22;;;;;;;;;;6247731;22;20008;-85
2023/10/25 03:13:22;;;;;;;31.65;4.22;;;;;;;;;;6274268;22;20035;-85
2023/10/25 03:15:49;;;;;;;30.38;4.38;;;;;;;;;;6273346;22;20119;-85
2023/10/25 03:18:16;;;;;;;29.15;3.65;;;;;;;;;;6274324;22;20301;-85
2023/10/25 03:20:42;;;;;;;29.67;4.05;;;;;;;;;;6247745;22;20035;-86
2023/10/25 03:23:09;;;;;;;29.38;3.55;;;;;;;;;;6221735;22;20020;-85
2023/10/25 03:25:36;;;;;;;32.35;3.75;;;;;;;;;;6247185;22;20083;-85
2023/10/25 03:28:03;;;;;;;34.25;3.72;;;;;;;;;;6247625;22;20044;-86
2023/10/25 03:30:30;;;;;;;33.90;4.13;;;;;;;;;;6221548;22;20019;-85
2023/10/25 03:32:57;;;;;;;28.42;3.33;;;;;;;;;;6273168;22;20007;-86
2023/10/25 03:35:25;;;;;;;27.13;3.55;;;;;;;;;;6246898;22;21582;-86
2023/10/25 03:37:52;;;;;;;22.40;2.78;;;;;;;;;;6274466;22;20020;-85
2023/10/25 03:40:19;;;;;;;21.70;2.85;;;;;;;;;;6221660;22;20011;-85
2023/10/25 03:42:46;;;;;;;13.73;1.65;;;;;;;;;;6247361;22;20016;-85
2023/10/25 03:45:13;;;;;;;12.77;1.60;;;;;;;;;;6221857;22;20023;-85
2023/10/25 03:47:40;;;;;;;11.18;1.85;;;;;;;;;;6247370;22;20109;-85
2023/10/25 03:50:07;;;;;;;9.43;1.67;;;;;;;;;;6247316;22;20066;-84
2023/10/25 03:52:34;;;;;;;11.32;2.08;;;;;;;;;;6247114;22;20042;-85
2023/10/25 03:55:01;;;;;;;7.50;1.60;;;;;;;;;;6222612;22;20015;-85
2023/10/25 03:57:28;;;;;;;8.93;1.90;;;;;;;;;;6273553;22;20029;-85
2023/10/25 03:59:55;;;;;;;9.13;1.80;;;;;;;;;;6274751;22;20094;-85
2023/10/25 04:02:22;;;;;;;8.20;1.33;;;;;;;;;;6221694;22;20038;-85
2023/10/25 04:04:49;;;;;;;10.45;1.17;;;;;;;;;;6247850;22;20016;-85
2023/10/25 04:07:16;;;;;;;3.00;0.90;;;;;;;;;;6246928;22;20023;-84
2023/10/25 04:09:42;;;;;;;3.60;1.00;;;;;;;;;;6274052;22;20023;-85
2023/10/25 04:12:12;;;;;;;5.13;0.75;;;;;;;;;;6246899;22;20133;-85
2023/10/25 04:14:45;;;;;;;2.03;0.60;;;;;;;;;;6273905;22;20101;-85
2023/10/25 04:17:12;;;;;;;2.88;0.40;;;;;;;;;;6246534;22;20020;-85
2023/10/25 04:19:40;;;;;;;1.38;0.30;;;;;;;;;;6247219;22;20065;-85
2023/10/25 04:22:07;;;;;;;1.00;0.40;;;;;;;;;;6247405;22;20020;-85
2023/10/25 04:24:34;;;;;;;1.65;0.30;;;;;;;;;;6272137;22;20090;-86
2023/10/25 04:27:02;;;;;;;1.73;0.30;;;;;;;;;;6222525;22;20088;-85
2023/10/25 04:29:30;;;;;;;1.45;0.28;;;;;;;;;;6273307;22;20030;-86
2023/10/25 04:31:57;;;;;;;1.88;0.30;;;;;;;;;;6247079;22;20017;-85
2023/10/25 04:34:24;;;;;;;0.25;0.25;;;;;;;;;;6272184;22;20027;-85
2023/10/25 04:36:51;;;;;;;2.40;0.40;;;;;;;;;;6247362;22;20019;-86
2023/10/25 04:39:18;;;;;;;2.93;0.30;;;;;;;;;;6221042;22;20019;-86
2023/10/25 04:41:45;;;;;;;2.10;0.30;;;;;;;;;;6247370;22;20035;-85
2023/10/25 04:44:13;;;;;;;2.00;0.45;;;;;;;;;;6246665;22;20026;-85
2023/10/25 04:46:40;;;;;;;2.53;0.40;;;;;;;;;;6222173;22;20337;-85
2023/10/25 04:49:07;;;;;;;2.65;0.47;;;;;;;;;;6246611;22;20011;-85
2023/10/25 04:51:36;;;;;;;4.15;0.55;;;;;;;;;;6222327;22;20012;-90
2023/10/25 04:54:04;;;;;;;2.38;0.40;;;;;;;;;;6209874;23;20091;-86
2023/10/25 04:56:30;;;;;;;1.65;0.40;;;;;;;;;;6245251;22;20016;-87
2023/10/25 04:58:57;;;;;;;2.80;0.70;;;;;;;;;;6247427;22;20077;-86
2023/10/25 05:01:24;;;;;;;3.30;0.75;;;;;;;;;;6245982;22;20047;-86
2023/10/25 05:03:51;;;;;;;3.53;0.60;;;;;;;;;;6246664;22;20015;-86
2023/10/25 05:06:18;;;;;;;2.90;0.80;;;;;;;;;;6196413;22;20019;-86
2023/10/25 05:08:45;;;;;;;3.30;0.85;;;;;;;;;;6246581;22;20025;-86
2023/10/25 05:11:15;;;;;;;1.58;1.15;;;;;;;;;;6246197;22;20016;-86
2023/10/25 05:13:43;;;;;;;2.13;0.95;;;;;;;;;;6221441;22;20316;-86
2023/10/25 05:16:10;;;;;;;4.50;1.20;;;;;;;;;;6221070;22;20258;-86
2023/10/25 05:18:37;;;;;;;2.88;1.20;;;;;;;;;;6246624;22;20007;-86
2023/10/25 05:21:04;;;;;;;3.97;1.38;;;;;;;;;;6220992;22;20019;-86
2023/10/25 05:23:34;;;;;;;6.25;1.40;;;;;;;;;;6272176;22;20043;-85
2023/10/25 05:26:04;;;;;;;5.32;0.85;;;;;;;;;;6273796;22;20022;-86
2023/10/25 05:28:32;;;;;;;4.28;0.88;;;;;;;;;;6245860;22;20012;-86
2023/10/25 05:31:03;;;;;;;2.47;0.90;;;;;;;;;;6246792;22;20019;-86
2023/10/25 05:33:32;;;;;;;4.32;0.80;;;;;;;;;;6273055;22;20016;-86
2023/10/25 05:36:01;;;;;;;3.78;0.90;;;;;;;;;;6274088;22;20081;-86
2023/10/25 05:38:29;;;;;;;;;;;;;;;;;;6246150;22;20081;-85
2023/10/25 05:40:58;;;;;;;4.78;1.15;;;;;;;;;;6273771;22;20236;-86
2023/10/25 05:43:28;;;;;;;;;;;;;;;;;;6221471;22;20375;-86
2023/10/25 05:45:56;;;;;;;5.90;0.90;;;;;;;;;;6246842;22;20328;-85
2023/10/25 05:48:23;;;;;;;1.57;0.90;;;;;;;;;;6245744;22;20074;-85
2023/10/25 05:50:50;;;;;;;2.10;0.80;;;;;;;;;;6223099;22;20628;-86
2023/10/25 05:53:21;;;;;;;4.88;1.00;;;;;;;;;;6274122;22;20015;-86
2023/10/25 05:55:48;;;;;;;5.50;0.80;;;;;;;;;;6248787;22;20015;-86
2023/10/25 05:58:15;;;;;;;3.90;0.80;;;;;;;;;;6275320;22;20324;-86
2023/10/25 06:00:48;;;;;;;6.80;0.70;;;;;;;;;;6222992;22;20012;-86
2023/10/25 06:03:21;;;;;;;4.38;0.80;;;;;;;;;;6249043;22;20020;-86
2023/10/25 06:05:52;;;;;;;3.28;0.80;;;;;;;;;;6249791;22;20027;-86
2023/10/25 06:08:19;;;;;;;2.72;0.70;;;;;;;;;;6271927;22;20099;-86
2023/10/25 06:10:48;;;;;;;2.47;0.80;;;;;;;;;;6248967;22;20046;-86
2023/10/25 06:13:16;;;;;;;3.95;1.10;;;;;;;;;;6221375;22;20446;-85
2023/10/25 06:15:44;;;;;;;7.30;1.00;;;;;;;;;;6275100;22;20442;-87
2023/10/25 06:18:11;;;;;;;2.50;1.10;;;;;;;;;;6220892;22;20378;-86
2023/10/25 06:20:38;;;;;;;5.95;1.45;;;;;;;;;;6247720;22;20499;-85
2023/10/25 06:23:05;;;;;;;6.35;1.70;;;;;;;;;;6274334;22;20027;-85
2023/10/25 06:25:32;;;;;;;5.53;0.90;;;;;;;;;;6247836;22;20087;-86
2023/10/25 06:27:59;;;;;;;4.25;1.13;;;;;;;;;;6222270;22;20463;-85
2023/10/25 06:30:27;;;;;;;4.32;0.80;;;;;;;;;;6247021;22;20034;-86
2023/10/25 06:32:56;;;;;;;7.47;0.80;;;;;;;;;;6248063;22;20046;-86
2023/10/25 06:35:23;;;;;;;7.55;1.20;;;;;;;;;;6246924;22;20062;-86
2023/10/25 06:37:51;;;;;;;4.18;0.80;;;;;;;;;;6221952;22;20026;-86
2023/10/25 06:40:18;;;;;;;5.40;1.02;;;;;;;;;;6244888;22;20073;-88
2023/10/25 06:42:45;;;;;;;4.40;0.93;;;;;;;;;;6245345;22;20114;-85
2023/10/25 06:45:16;;;;;;;5.70;1.52;;;;;;;;;;6245959;22;20090;-85
2023/10/25 06:47:43;;;;;;;6.43;1.30;;;;;;;;;;6223348;22;20019;-85
2023/10/25 06:50:12;;;;;;;7.10;1.00;;;;;;;;;;6222231;22;20328;-85
2023/10/25 06:52:39;;;;;;;4.35;1.58;;;;;;;;;;6222884;22;20096;-86
2023/10/25 06:55:07;;;;;;;10.88;1.98;;;;;;;;;;6221891;22;20094;-85
2023/10/25 06:57:35;;;;;;;9.07;1.02;;;;;;;;;;6248351;22;20030;-86
2023/10/25 07:00:08;;;;;;;5.10;1.55;;;;;;;;;;6222615;22;20340;-86
2023/10/25 07:02:51;;;;;;;4.20;1.10;;;;;;;;;;6222627;22;20106;-85
2023/10/25 07:05:23;;;;;;;3.55;1.30;;;;;;;;;;6273580;22;20123;-86
2023/10/25 07:07:51;;;;;;;8.10;1.60;;;;;;;;;;6248036;22;20014;-87
2023/10/25 07:10:19;;;;;;;7.38;1.17;;;;;;;;;;6221708;22;20027;-86
2023/10/25 07:12:47;;;;;;;4.43;1.20;;;;;;;;;;6248091;22;20311;-86
2023/10/25 07:15:14;;;;;;;6.00;1.15;;;;;;;;;;6247223;22;20031;-87
2023/10/25 07:17:42;;;;;;;3.70;1.02;;;;;;;;;;6247669;22;20016;-86
2023/10/25 07:20:12;;;;;;;10.70;1.30;;;;;;;;;;6247292;22;20019;-86
2023/10/25 07:22:40;;;;;;;6.72;1.65;;;;;;;;;;6222842;22;20390;-85
2023/10/25 07:25:08;;;;;;;9.73;1.90;;;;;;;;;;6222048;22;20431;-85
2023/10/25 07:27:37;;;;;;;7.83;1.27;;;;;;;;;;6222448;22;20037;-86
2023/10/25 07:30:05;;;;;;;5.43;1.02;;;;;;;;;;6222814;22;20087;-86
2023/10/25 07:32:46;;;;;;;7.50;1.33;;;;;;;;;;6224236;22;20071;-94
2023/10/25 07:35:14;;;;;;;4.65;1.02;;;;;;;;;;6246988;22;20254;-85
2023/10/25 07:37:40;;;;;;;5.18;1.15;;;;;;;;;;6274670;22;20077;-85
2023/10/25 07:40:08;;;;;;;3.80;1.02;;;;;;;;;;6247047;22;20015;-85
2023/10/25 07:42:34;;;;;;;8.88;1.52;;;;;;;;;;6248087;22;20086;-86
2023/10/25 07:45:01;;;;;;;6.75;1.35;;;;;;;;;;6248888;22;20023;-85
2023/10/25 07:47:28;;;;;;;6.43;1.33;;;;;;;;;;6248608;22;20020;-85
2023/10/25 07:49:55;;;;;;;7.40;1.20;;;;;;;;;;6276562;22;20016;-85
2023/10/25 07:52:23;;;;;;;8.13;1.30;;;;;;;;;;6275682;22;20035;-85
2023/10/25 07:54:50;;;;;;;7.15;1.30;;;;;;;;;;6249896;22;20023;-85
2023/10/25 07:57:16;;;;;;;7.60;1.27;;;;;;;;;;6248958;22;20019;-85
2023/10/25 08:00:04;;;;;;;11.15;1.90;;;;;;;;;;6248507;22;20070;-85
2023/10/25 08:02:31;;;;;;;8.57;1.58;;;;;;;;;;6248726;22;20023;-85
2023/10/25 08:04:57;;;;;;;6.75;1.48;;;;;;;;;;6276564;22;20011;-86
2023/10/25 08:07:26;;;;;;;11.13;1.77;;;;;;;;;;6248238;22;20016;-85
2023/10/25 08:09:53;;;;;;;9.50;1.90;;;;;;;;;;6248510;22;20069;-86
2023/10/25 08:12:20;;;;;;;13.65;1.80;;;;;;;;;;6221839;22;20011;-85
2023/10/25 08:14:46;;;;;;;8.05;1.30;;;;;;;;;;6223598;22;20139;-85
2023/10/25 08:17:13;;;;;;;7.05;1.25;;;;;;;;;;6275152;22;20016;-85
2023/10/25 08:19:40;;;;;;;7.82;0.95;;;;;;;;;;6249012;22;20016;-85
2023/10/25 08:22:08;;;;;;;7.32;1.58;;;;;;;;;;6223077;22;20016;-85
2023/10/25 08:24:35;;;;;;;7.88;1.23;;;;;;;;;;6276130;22;20019;-85
2023/10/25 08:27:02;;;;;;;8.63;1.10;;;;;;;;;;6276476;22;20015;-85
2023/10/25 08:29:29;;;;;;;10.65;1.48;;;;;;;;;;6273840;22;20069;-85
2023/10/25 08:31:56;;;;;;;7.70;1.10;;;;;;;;;;6248551;22;20027;-85
2023/10/25 08:34:22;;;;;;;4.95;0.90;;;;;;;;;;6247888;22;20041;-85
2023/10/25 08:36:52;;;;;;;4.13;1.05;;;;;;;;;;6223051;22;20281;-85
2023/10/25 08:39:21;;;;;;;9.45;1.63;;;;;;;;;;6275080;22;20355;-86
2023/10/25 08:41:50;;;;;;;6.93;1.40;;;;;;;;;;6248871;22;20027;-86
2023/10/25 08:44:17;;;;;;;4.82;1.08;;;;;;;;;;6248059;22;20012;-85
2023/10/25 08:46:44;;;;;;;9.27;1.10;;;;;;;;;;6223549;22;20354;-86
2023/10/25 08:49:11;;;;;;;7.45;1.40;;;;;;;;;;6223168;22;20020;-86
2023/10/25 08:51:41;;;;;;;6.90;1.63;;;;;;;;;;6249406;22;20016;-85
2023/10/25 08:54:09;;;;;;;8.50;1.20;;;;;;;;;;6248447;22;20376;-86
2023/10/25 08:56:35;;;;;;;8.15;1.35;;;;;;;;;;6223252;22;20375;-85
2023/10/25 08:59:05;;;;;;;9.60;1.38;;;;;;;;;;6249011;22;20024;-85
2023/10/25 09:02:01;;;;;;;6.53;1.27;;;;;;;;;;6223143;22;20085;-90
2023/10/25 09:04:28;;;;;;;5.75;1.10;;;;;;;;;;6248401;22;20019;-86
2023/10/25 09:06:55;;;;;;;6.40;1.50;;;;;;;;;;6249116;22;20086;-86
2023/10/25 09:09:38;;;;;;;9.43;1.20;;;;;;;;;;6182983;22;20016;-85
2023/10/25 09:12:05;;;;;;;8.77;0.98;;;;;;;;;;6223076;22;20020;-84
2023/10/25 09:14:46;;;;;;;10.52;1.05;;;;;;;;;;6223761;22;20016;-84
2023/10/25 09:17:16;;;;;;;8.32;1.23;;;;;;;;;;6206238;22;20081;-92
2023/10/25 09:23:33;;;;;;;5.72;1.00;;;;;;;;;;6271353;22;20011;-84
2023/10/25 09:26:12;;;;;;;5.13;0.90;;;;;;;;;;6200785;22;20015;-85
2023/10/25 09:28:38;;;;;;;8.02;0.80;;;;;;;;;;6276753;22;20501;-86
2023/10/25 09:31:28;;;;;;;10.82;1.50;;;;;;;;;;6275490;22;20066;-86
2023/10/25 09:33:59;;;;;;;6.43;1.00;;;;;;;;;;6225518;22;20478;-86
2023/10/25 09:36:27;;;;;;;7.93;0.90;;;;;;;;;;6224527;22;20023;-86
2023/10/25 09:38:55;;;;;;;5.50;0.87;;;;;;;;;;6225076;22;20019;-86
2023/10/25 09:41:24;;;;;;;8.73;1.03;;;;;;;;;;6224744;22;20250;-86
2023/10/25 09:43:52;;;;;;;7.00;2.03;;;;;;;;;;6225197;22;20324;-86
2023/10/25 09:46:21;;;;;;;4.47;0.82;;;;;;;;;;6250186;22;20027;-86
2023/10/25 09:49:04;;;;;;;5.13;1.00;;;;;;;;;;6225431;22;20027;-85
2023/10/25 09:51:41;;;;;;;10.23;1.70;;;;;;;;;;6249842;22;20019;-86
2023/10/25 09:54:12;;;;;;;10.52;0.93;;;;;;;;;;6249867;22;20374;-85
2023/10/25 09:56:40;;;;;;;5.13;0.90;;;;;;;;;;6225278;22;20020;-86
2023/10/25 09:59:10;;;;;;;8.85;1.55;;;;;;;;;;6224725;22;20328;-85
2023/10/25 10:01:39;;;;;;;5.72;0.90;;;;;;;;;;6225470;22;20098;-85
2023/10/25 10:04:19;;;;;;;10.32;1.30;;;;;;;;;;6250706;22;20042;-85
2023/10/25 10:07:02;;;;;;;7.05;1.02;;;;;;;;;;6225427;22;20008;-86
2023/10/25 10:09:31;;;;;;;9.15;1.55;;;;;;;;;;6250239;22;20008;-86
2023/10/25 10:12:06;;;;;;;8.00;1.17;;;;;;;;;;6225863;22;20089;-86
2023/10/25 10:14:35;;;;;;;6.35;1.00;;;;;;;;;;6252793;22;20015;-85
2023/10/25 10:17:05;;;;;;;8.10;1.10;;;;;;;;;;6255465;22;20356;-84
2023/10/25 10:19:33;;;;;;;7.95;1.13;;;;;;;;;;6229757;22;20077;-85
2023/10/25 10:22:11;;;;;;;5.30;0.60;;;;;;;;;;6225644;22;20011;-85
2023/10/25 10:24:39;;;;;;;7.70;1.10;;;;;;;;;;6249817;22;20023;-87
2023/10/25 10:27:07;;;;;;;;;;;;;;;;;;6225003;22;20440;-84
2023/10/25 10:29:36;;;;;;;4.72;0.73;;;;;;;;;;6250277;22;19915;-86
2023/10/25 10:32:05;;;;;;;7.07;0.80;;;;;;;;;;6250195;22;20012;-86
2023/10/25 10:34:42;;;;;;;8.32;0.95;;;;;;;;;;6249942;22;20584;-87
2023/10/25 10:37:19;;;;;;;5.97;0.93;;;;;;;;;;6249700;22;20046;-86
2023/10/25 10:39:58;;;;;;;9.40;0.70;;;;;;;;;;6224987;22;20004;-87
2023/10/25 10:42:33;;;;;;;5.90;0.82;;;;;;;;;;6224944;22;20039;-86
2023/10/25 10:45:04;;;;;;;9.45;1.00;;;;;;;;;;6250000;22;20023;-86
2023/10/25 10:48:06;;;;;;;7.80;0.80;;;;;;;;;;6249083;22;20020;-86
2023/10/25 10:50:33;;;;;;;7.68;0.75;;;;;;;;;;6224000;22;20022;-86
2023/10/25 10:53:00;;;;;;;8.07;0.80;;;;;;;;;;6247898;22;20007;-86
2023/10/25 10:55:27;;;;;;;5.38;0.80;;;;;;;;;;6246415;22;20020;-86
2023/10/25 10:57:54;;;;;;;2.47;0.38;;;;;;;;;;6224742;22;20136;-84
2023/10/25 11:00:36;;;;;;;5.88;0.63;;;;;;;;;;6252954;22;20047;-86
2023/10/25 11:03:03;;;;;;;5.53;0.85;;;;;;;;;;6224568;22;20483;-86
2023/10/25 11:05:38;;;;;;;4.30;0.57;;;;;;;;;;6250752;22;20090;-87
2023/10/25 11:08:14;;;;;;;3.97;0.70;;;;;;;;;;6276123;22;20070;-86
2023/10/25 11:10:41;;;;;;;7.45;0.70;;;;;;;;;;6250302;22;20022;-86
2023/10/25 11:13:09;;;;;;;4.47;0.60;;;;;;;;;;6249227;22;20071;-86
2023/10/25 11:15:36;;;;;;;2.83;0.77;;;;;;;;;;6224567;22;20034;-86
2023/10/25 11:18:09;;;;;;;4.40;0.50;;;;;;;;;;6224679;22;20355;-86
2023/10/25 11:20:41;;;;;;;5.10;0.70;;;;;;;;;;6274552;22;20019;-84
2023/10/25 11:23:08;;;;;;;3.28;0.50;;;;;;;;;;6248533;22;20016;-86
2023/10/25 11:25:37;;;;;;;4.10;0.82;;;;;;;;;;6224487;22;20506;-83
2023/10/25 11:28:08;;;;;;;4.22;0.70;;;;;;;;;;6224588;22;20025;-94
2023/10/25 11:30:36;;;;;;;6.45;0.52;;;;;;;;;;6273794;22;20081;-88
2023/10/25 11:33:04;;;;;;;2.60;0.80;;;;;;;;;;6221563;22;20023;-87
2023/10/25 11:35:34;;;;;;;6.88;0.45;;;;;;;;;;6247160;22;20020;-87
2023/10/25 11:38:02;;;;;;;4.78;0.60;;;;;;;;;;6222426;22;20018;-87
2023/10/25 11:40:43;;;;;;;6.05;0.98;;;;;;;;;;6222323;22;20320;-86
2023/10/25 11:43:10;;;;;;;3.53;0.73;;;;;;;;;;6221221;22;20023;-88
2023/10/25 11:45:38;;;;;;;3.45;0.47;;;;;;;;;;6222684;22;20018;-87
2023/10/25 11:48:07;;;;;;;6.95;0.80;;;;;;;;;;6220553;22;20316;-87
2023/10/25 11:50:35;;;;;;;6.43;0.43;;;;;;;;;;6222313;22;20011;-88
2023/10/25 11:53:02;;;;;;;2.80;0.55;;;;;;;;;;6222160;22;20103;-88
2023/10/25 11:55:30;;;;;;;4.93;0.40;;;;;;;;;;6221627;22;20621;-88
2023/10/25 11:57:57;;;;;;;4.57;0.85;;;;;;;;;;6222520;22;20016;-88
2023/10/25 12:00:24;;;;;;;4.20;0.60;;;;;;;;;;6221349;22;20024;-88
2023/10/25 12:02:51;;;;;;;5.93;0.70;;;;;;;;;;6222418;22;20012;-88
2023/10/25 12:05:18;;;;;;;2.38;0.38;;;;;;;;;;6246248;22;20020;-87
2023/10/25 12:07:48;;;;;;;4.00;0.60;;;;;;;;;;6222263;22;20020;-89
2023/10/25 12:10:16;;;;;;;3.90;0.60;;;;;;;;;;6221336;22;20094;-88
2023/10/25 12:12:43;;;;;;;4.55;0.52;;;;;;;;;;6221244;22;20023;-86
2023/10/25 12:15:11;;;;;;;3.20;0.47;;;;;;;;;;6220966;22;20366;-86
2023/10/25 12:17:38;;;;;;;2.85;0.40;;;;;;;;;;6249093;22;20019;-83
2023/10/25 12:20:06;;;;;;;2.92;0.45;;;;;;;;;;6249318;22;20446;-82
2023/10/25 12:22:53;;;;;;;2.70;0.75;;;;;;;;;;6254059;22;20386;-82
2023/10/25 12:25:19;;;;;;;3.17;0.60;;;;;;;;;;6248371;22;20055;-83
2023/10/25 12:27:46;;;;;;;5.38;0.57;;;;;;;;;;6275835;22;20290;-82
2023/10/25 12:30:13;;;;;;;4.03;0.82;;;;;;;;;;6247757;22;20026;-82
2023/10/25 12:32:40;;;;;;;4.55;0.60;;;;;;;;;;6276188;22;20008;-82
2023/10/25 12:35:07;;;;;;;3.53;0.95;;;;;;;;;;6275522;22;20077;-82
2023/10/25 12:37:34;;;;;;;10.02;1.08;;;;;;;;;;6249389;22;20008;-83
2023/10/25 12:40:01;;;;;;;10.13;0.90;;;;;;;;;;6276029;22;20023;-83
2023/10/25 12:42:27;;;;;;;6.93;1.05;;;;;;;;;;6276012;22;20509;-82
2023/10/25 12:44:54;;;;;;;8.88;1.20;;;;;;;;;;6276507;22;20011;-83
2023/10/25 12:47:22;;;;;;;5.82;0.90;;;;;;;;;;6275508;22;20366;-83
2023/10/25 12:49:49;;;;;;;4.70;0.60;;;;;;;;;;6275986;22;20008;-83
2023/10/25 12:52:16;;;;;;;4.82;0.63;;;;;;;;;;6248887;22;20015;-83
2023/10/25 12:54:43;;;;;;;10.90;1.33;;;;;;;;;;6275573;22;20054;-83
2023/10/25 12:57:10;;;;;;;4.32;0.98;;;;;;;;;;6248217;22;20317;-83
2023/10/25 12:59:37;;;;;;;6.65;0.88;;;;;;;;;;6274221;22;20428;-83
2023/10/25 13:02:05;;;;;;;7.45;0.80;;;;;;;;;;6248241;22;20027;-83
2023/10/25 13:04:32;;;;;;;4.57;1.02;;;;;;;;;;6249237;22;20066;-83
2023/10/25 13:06:59;;;;;;;4.40;0.98;;;;;;;;;;6249253;22;20028;-83
2023/10/25 13:09:26;;;;;;;8.55;0.98;;;;;;;;;;6275362;22;20547;-83
2023/10/25 13:11:54;;;;;;;6.18;0.70;;;;;;;;;;6248955;22;20038;-82
2023/10/25 13:14:21;;;;;;;4.78;0.70;;;;;;;;;;6275086;22;20018;-83
2023/10/25 13:16:48;;;;;;;4.63;0.70;;;;;;;;;;6249316;22;20425;-83
2023/10/25 13:19:16;;;;;;;6.20;1.10;;;;;;;;;;6275642;22;20012;-83
2023/10/25 13:21:43;;;;;;;8.98;1.20;;;;;;;;;;6275630;22;20371;-82
2023/10/25 13:24:10;;;;;;;4.03;0.73;;;;;;;;;;6248645;22;20051;-82
2023/10/25 13:26:37;;;;;;;3.67;1.20;;;;;;;;;;6275983;22;20019;-83
2023/10/25 13:29:04;;;;;;;6.78;1.00;;;;;;;;;;6248570;22;20039;-83
2023/10/25 13:31:31;;;;;;;6.00;0.80;;;;;;;;;;6248621;22;20015;-86
2023/10/25 13:33:58;;;;;;;9.98;1.48;;;;;;;;;;6248715;22;20042;-89
2023/10/25 13:36:25;;;;;;;9.00;1.13;;;;;;;;;;6222506;22;20048;-89
2023/10/25 13:38:52;;;;;;;7.47;1.05;;;;;;;;;;6222996;22;20026;-88
2023/10/25 13:41:19;;;;;;;6.65;0.75;;;;;;;;;;6222647;22;20024;-88
2023/10/25 13:43:47;;;;;;;7.90;1.20;;;;;;;;;;6223062;22;20795;-88
2023/10/25 13:46:48;;;;;;;8.13;0.93;;;;;;;;;;6207332;22;20027;-95
2023/10/25 13:49:33;;;;;;;8.27;1.00;;;;;;;;;;6205269;22;20090;-92
2023/10/25 13:52:06;;;;;;;5.00;0.93;;;;;;;;;;6175307;23;20008;-91
2023/10/25 13:54:48;;;;;;;4.75;1.10;;;;;;;;;;6198691;22;20110;-90
2023/10/25 13:57:29;;;;;;;6.97;1.05;;;;;;;;;;6170996;22;20171;-91
2023/10/25 14:00:30;;;;;;;8.63;1.10;;;;;;;;;;6222961;22;20014;-92
2023/10/25 14:03:20;;;;;;;;;;;;;;;;;;;;;
2023/10/25 14:06:03;;;;;;;9.00;1.50;;;;;;;;;;6094077;23;20021;-88
2023/10/25 14:23:55;;;;;;;7.70;1.63;;;;;;;;;;5990462;23;20024;-93
2023/10/25 14:27:14;;;;;;;9.05;2.30;;;;;;;;;;5909031;23;20391;-91
2023/10/25 14:30:36;;;;;;;6.67;2.73;;;;;;;;;;5886520;23;20063;-90
2023/10/25 14:33:06;;;;;;;5.18;1.90;;;;;;;;;;6011620;23;20020;-91
2023/10/25 14:35:47;;;;;;;7.22;1.80;;;;;;;;;;6036934;23;20024;-91
2023/10/25 14:38:14;;;;;;;6.05;2.00;;;;;;;;;;5975805;23;20015;-90
2023/10/25 14:41:13;;;;;;;6.28;1.75;;;;;;;;;;5956206;23;20085;-91
2023/10/25 14:43:59;;;;;;;5.47;1.25;;;;;;;;;;5935110;23;20054;-91
2023/10/25 14:46:45;;;;;;;7.28;1.50;;;;;;;;;;5975350;23;20021;-90
2023/10/25 14:49:22;;;;;;;6.55;1.50;;;;;;;;;;5990854;23;20019;-90
2023/10/25 14:52:25;;;;;;;7.95;2.70;;;;;;;;;;5896966;23;20028;-90
2023/10/25 14:55:10;;;;;;;7.70;2.33;;;;;;;;;;5951315;23;20016;-91
2023/10/25 15:01:24;;;;;;;7.15;1.77;;;;;;;;;;5966972;23;20016;-91
2023/10/25 15:03:59;;;;;;;5.93;1.40;;;;;;;;;;5988720;23;20030;-92
2023/10/25 15:06:45;;;;;;;;;;;;;;;;;;;;;
2023/10/25 15:09:47;;;;;;;5.30;1.20;;;;;;;;;;6092162;23;20031;-85
2023/10/25 15:12:14;;;;;;;8.20;1.95;;;;;;;;;;6225482;22;20016;-86
2023/10/25 15:14:41;;;;;;;4.95;1.25;;;;;;;;;;6250485;22;20090;-85
2023/10/25 15:17:19;;;;;;;9.63;2.10;;;;;;;;;;6248777;22;20024;-86
2023/10/25 15:19:46;;;;;;;7.93;2.47;;;;;;;;;;6251485;22;20630;-86